createdAt,value
2018-06-22T00:01:30.239Z,1.50
2018-06-22T00:05:03.540Z,1.70
2018-06-22T00:08:36.778Z,1.57
2018-06-22T00:12:10.073Z,1.77
2018-06-22T00:15:43.343Z,1.70
2018-06-22T00:19:16.576Z,1.60
2018-06-22T00:22:49.811Z,1.17
2018-06-22T00:26:22.783Z,1.70
2018-06-22T00:29:56.020Z,1.60
2018-06-22T00:33:29.269Z,1.43
2018-06-22T00:37:02.509Z,1.70
2018-06-22T00:40:36.258Z,1.70
2018-06-22T00:44:09.541Z,1.70
2018-06-22T00:47:42.780Z,1.37
2018-06-22T00:51:16.075Z,2.30
2018-06-22T00:54:49.334Z,1.33
2018-06-22T00:58:23.649Z,1.43
2018-06-22T01:01:57.007Z,2.40
2018-06-22T01:05:30.252Z,1.80
2018-06-22T01:09:05.036Z,1.90
2018-06-22T01:12:38.277Z,1.30
2018-06-22T01:16:11.239Z,1.63
2018-06-22T01:19:44.484Z,1.87
2018-06-22T01:23:17.711Z,1.40
2018-06-22T01:26:50.966Z,1.60
2018-06-22T01:30:24.261Z,1.60
2018-06-22T01:33:57.363Z,1.53
2018-06-22T01:37:30.389Z,1.20
2018-06-22T01:41:03.669Z,1.90
2018-06-22T01:44:36.967Z,1.57
2018-06-22T01:48:10.199Z,1.20
2018-06-22T01:51:43.456Z,1.60
2018-06-22T01:55:16.423Z,2.13
2018-06-22T01:58:49.686Z,1.73
2018-06-22T02:02:22.924Z,1.87
2018-06-22T02:05:56.177Z,2.20
2018-06-22T02:09:29.410Z,1.77
2018-06-22T02:13:02.741Z,1.43
2018-06-22T02:16:36.304Z,1.70
2018-06-22T02:20:09.608Z,2.23
2018-06-22T02:23:42.891Z,1.43
2018-06-22T02:27:16.124Z,2.00
2018-06-22T02:30:49.374Z,1.50
2018-06-22T02:34:22.653Z,1.77
2018-06-22T02:37:55.685Z,1.93
2018-06-22T02:41:28.931Z,1.60
2018-06-22T02:45:02.224Z,1.60
2018-06-22T02:48:35.504Z,2.30
2018-06-22T02:52:08.824Z,1.83
2018-06-22T02:55:42.053Z,2.30
2018-06-22T02:59:15.036Z,2.30
2018-06-22T03:02:50.720Z,2.37
2018-06-22T03:06:23.963Z,2.00
2018-06-22T03:09:57.204Z,2.80
2018-06-22T03:13:30.454Z,2.30
2018-06-22T03:17:03.703Z,2.20
2018-06-22T03:20:36.952Z,2.40
2018-06-22T03:24:10.177Z,2.40
2018-06-22T03:27:43.407Z,1.73
2018-06-22T03:31:16.628Z,2.23
2018-06-22T03:34:49.897Z,1.90
2018-06-22T03:38:23.096Z,2.03
2018-06-22T03:41:56.341Z,2.03
2018-06-22T03:45:29.611Z,2.10
2018-06-22T03:49:02.855Z,2.60
2018-06-22T03:52:36.119Z,2.70
2018-06-22T03:56:09.995Z,2.50
2018-06-22T03:59:43.259Z,2.20
2018-06-22T04:03:16.520Z,2.87
2018-06-22T04:06:49.778Z,2.47
2018-06-22T04:10:23.024Z,2.30
2018-06-22T04:13:56.259Z,2.87
2018-06-22T04:17:29.517Z,2.27
2018-06-22T04:21:02.821Z,1.90
2018-06-22T04:24:36.569Z,2.20
2018-06-22T04:28:09.885Z,2.43
2018-06-22T04:31:43.156Z,2.10
2018-06-22T04:35:16.877Z,2.27
2018-06-22T04:38:51.527Z,2.70
2018-06-22T04:42:24.747Z,3.00
2018-06-22T04:45:57.975Z,2.10
2018-06-22T04:49:31.228Z,3.73
2018-06-22T04:53:04.537Z,3.20
2018-06-22T04:56:37.897Z,3.20
2018-06-22T05:00:11.289Z,2.57
2018-06-22T05:03:44.665Z,3.00
2018-06-22T05:07:17.929Z,3.13
2018-06-22T05:10:51.295Z,3.10
2018-06-22T05:14:24.500Z,2.73
2018-06-22T05:17:57.775Z,2.90
2018-06-22T05:21:30.764Z,3.40
2018-06-22T05:25:04.065Z,3.20
2018-06-22T05:28:37.303Z,4.30
2018-06-22T05:32:10.586Z,3.60
2018-06-22T05:35:46.872Z,3.40
2018-06-22T05:39:20.189Z,5.03
2018-06-22T05:42:53.464Z,4.60
2018-06-22T05:46:26.712Z,4.33
2018-06-22T05:49:59.933Z,4.07
2018-06-22T05:53:33.074Z,4.10
2018-06-22T05:57:06.927Z,4.00
2018-06-22T06:00:40.195Z,3.77
2018-06-22T06:04:13.444Z,4.53
2018-06-22T06:07:46.546Z,4.50
2018-06-22T06:11:19.592Z,4.13
2018-06-22T06:14:53.098Z,4.50
2018-06-22T06:18:26.503Z,4.43
2018-06-22T06:21:59.740Z,4.10
2018-06-22T06:25:32.723Z,5.07
2018-06-22T06:29:05.968Z,5.00
2018-06-22T06:32:39.466Z,4.73
2018-06-22T06:36:12.740Z,4.50
2018-06-22T06:39:45.965Z,4.23
2018-06-22T06:43:19.212Z,5.20
2018-06-22T06:46:52.492Z,4.10
2018-06-22T06:50:25.798Z,3.37
2018-06-22T06:53:59.319Z,3.83
2018-06-22T06:57:32.587Z,3.63
2018-06-22T07:01:05.851Z,3.17
2018-06-22T07:04:39.155Z,2.73
2018-06-22T07:08:12.564Z,3.57
2018-06-22T07:11:45.566Z,3.90
2018-06-22T07:15:18.841Z,3.23
2018-06-22T07:18:52.109Z,2.47
2018-06-22T07:22:25.371Z,2.60
2018-06-22T07:25:58.834Z,2.50
2018-06-22T07:29:32.326Z,2.80
2018-06-22T07:33:05.562Z,3.00
2018-06-22T07:36:38.629Z,3.00
2018-06-22T07:40:11.876Z,3.17
2018-06-22T07:43:45.176Z,3.27
2018-06-22T07:47:18.573Z,2.63
2018-06-22T07:50:51.839Z,2.73
2018-06-22T07:54:25.107Z,2.60
2018-06-22T07:57:58.378Z,2.97
2018-06-22T08:01:31.588Z,2.43
2018-06-22T08:05:04.988Z,2.87
2018-06-22T08:08:38.243Z,2.10
2018-06-22T08:12:11.692Z,2.50
2018-06-22T08:15:45.651Z,1.67
2018-06-22T08:19:18.955Z,2.60
2018-06-22T08:22:52.204Z,1.40
2018-06-22T08:26:25.472Z,1.73
2018-06-22T08:29:58.706Z,1.43
2018-06-22T08:33:31.974Z,1.90
2018-06-22T08:37:04.979Z,1.57
2018-06-22T08:40:37.953Z,1.60
2018-06-22T08:44:11.548Z,1.60
2018-06-22T08:47:45.405Z,2.03
2018-06-22T08:51:18.402Z,1.60
2018-06-22T08:54:51.668Z,1.60
2018-06-22T08:58:24.929Z,1.70
2018-06-22T09:01:58.312Z,1.67
2018-06-22T09:05:31.584Z,1.90
2018-06-22T09:09:07.073Z,1.80
2018-06-22T09:12:40.382Z,1.87
2018-06-22T09:16:13.633Z,1.77
2018-06-22T09:19:46.942Z,2.27
2018-06-22T09:23:20.152Z,2.00
2018-06-22T09:26:53.469Z,2.50
2018-06-22T09:30:26.728Z,1.67
2018-06-22T09:34:00.025Z,1.93
2018-06-22T09:37:33.421Z,1.73
2018-06-22T09:41:07.010Z,2.13
2018-06-22T09:44:41.169Z,2.63
2018-06-22T09:48:14.476Z,1.70
2018-06-22T09:51:47.471Z,2.33
2018-06-22T09:55:20.728Z,2.77
2018-06-22T09:58:54.014Z,2.50
2018-06-22T10:02:27.233Z,2.70
2018-06-22T10:06:00.552Z,3.87
2018-06-22T10:09:33.774Z,2.70
2018-06-22T10:13:06.806Z,2.60
2018-06-22T10:16:40.073Z,2.83
2018-06-22T10:20:13.344Z,3.40
2018-06-22T10:23:46.575Z,2.33
2018-06-22T10:27:19.626Z,3.20
2018-06-22T10:30:52.852Z,2.30
2018-06-22T10:34:26.118Z,3.07
2018-06-22T10:37:59.381Z,2.30
2018-06-22T10:41:32.662Z,2.90
2018-06-22T10:45:05.735Z,2.00
2018-06-22T10:48:38.984Z,2.37
2018-06-22T10:52:12.239Z,2.70
2018-06-22T10:55:45.504Z,2.47
2018-06-22T10:59:18.760Z,2.13
2018-06-22T11:02:52.019Z,2.27
2018-06-22T11:06:25.244Z,2.80
2018-06-22T11:09:58.549Z,2.70
2018-06-22T11:13:31.829Z,3.00
2018-06-22T11:17:05.138Z,2.80
2018-06-22T11:20:38.400Z,3.63
2018-06-22T11:24:11.726Z,2.40
2018-06-22T11:27:45.052Z,3.07
2018-06-22T11:31:18.027Z,2.90
2018-06-22T11:34:51.336Z,2.87
2018-06-22T11:38:24.600Z,3.07
2018-06-22T11:41:57.868Z,2.47
2018-06-22T11:45:31.272Z,2.87
2018-06-22T11:49:04.335Z,2.70
2018-06-22T11:52:37.647Z,2.27
2018-06-22T11:56:10.909Z,2.63
2018-06-22T11:59:44.138Z,2.53
2018-06-22T12:03:17.672Z,2.40
2018-06-22T12:06:50.957Z,2.07
2018-06-22T12:10:24.211Z,2.37
2018-06-22T12:13:57.521Z,2.77
2018-06-22T12:17:30.857Z,2.50
2018-06-22T12:21:04.092Z,3.10
2018-06-22T12:24:37.368Z,2.20
2018-06-22T12:28:10.639Z,2.53
2018-06-22T12:31:43.884Z,2.63
2018-06-22T12:35:17.164Z,3.00
2018-06-22T12:38:50.157Z,2.77
2018-06-22T12:42:23.444Z,2.90
2018-06-22T12:45:56.726Z,2.80
2018-06-22T12:49:30.014Z,2.93
2018-06-22T12:53:03.271Z,2.77
2018-06-22T12:56:36.284Z,2.47
2018-06-22T13:00:09.539Z,2.27
2018-06-22T13:03:42.791Z,1.90
2018-06-22T13:07:16.097Z,1.90
2018-06-22T13:10:49.396Z,2.50
2018-06-22T13:14:22.677Z,2.67
2018-06-22T13:17:56.207Z,2.30
2018-06-22T13:21:29.463Z,2.00
2018-06-22T13:25:02.700Z,2.40
2018-06-22T13:28:35.964Z,2.50
2018-06-22T13:32:09.003Z,2.10
2018-06-22T13:35:42.248Z,1.90
2018-06-22T13:39:16.647Z,2.77
2018-06-22T13:42:49.924Z,2.47
2018-06-22T13:46:23.303Z,2.50
2018-06-22T13:49:56.571Z,2.07
2018-06-22T13:53:29.921Z,2.47
2018-06-22T13:57:03.455Z,2.37
2018-06-22T14:00:36.297Z,2.23
2018-06-22T14:04:14.973Z,2.40
2018-06-22T14:07:48.236Z,3.37
2018-06-22T14:11:21.506Z,2.47
2018-06-22T14:14:54.747Z,2.57
2018-06-22T14:18:27.983Z,2.83
2018-06-22T14:22:01.261Z,2.70
2018-06-22T14:25:34.552Z,3.50
2018-06-22T14:29:07.822Z,2.90
2018-06-22T14:32:41.083Z,2.63
2018-06-22T14:36:14.352Z,2.53
2018-06-22T14:39:47.626Z,2.20
2018-06-22T14:43:20.939Z,2.20
2018-06-22T14:46:54.271Z,2.07
2018-06-22T14:50:27.536Z,2.13
2018-06-22T14:54:06.308Z,2.33
2018-06-22T14:57:45.087Z,2.03
2018-06-22T15:01:23.764Z,2.30
2018-06-22T15:05:02.494Z,2.30
2018-06-22T15:08:35.780Z,2.00
2018-06-22T15:12:09.048Z,2.57
2018-06-22T15:15:42.303Z,2.67
2018-06-22T15:19:16.068Z,2.70
2018-06-22T15:22:49.589Z,2.80
2018-06-22T15:26:23.240Z,3.23
2018-06-22T15:29:56.491Z,2.90
2018-06-22T15:33:35.473Z,2.60
2018-06-22T15:37:14.124Z,2.20
2018-06-22T15:40:52.920Z,1.77
2018-06-22T15:44:31.578Z,2.10
2018-06-22T15:48:10.216Z,1.63
2018-06-22T15:51:48.816Z,1.93
2018-06-22T15:55:23.888Z,2.03
2018-06-22T15:58:58.184Z,2.17
2018-06-22T16:04:42.588Z,2.40
2018-06-22T16:08:15.828Z,2.50
2018-06-22T16:11:49.063Z,2.30
2018-06-22T16:15:27.764Z,1.80
2018-06-22T16:20:04.720Z,1.97
2018-06-22T16:23:43.444Z,2.63
2018-06-22T16:27:16.934Z,1.90
2018-06-22T16:30:50.156Z,2.53
2018-06-22T16:34:23.400Z,2.23
2018-06-22T16:37:56.662Z,1.70
2018-06-22T16:41:29.916Z,1.77
2018-06-22T16:45:03.168Z,1.77
2018-06-22T16:48:36.684Z,2.20
2018-06-22T16:52:09.999Z,2.30
2018-06-22T16:55:43.216Z,2.23
2018-06-22T16:59:16.515Z,2.17
2018-06-22T17:02:49.750Z,1.73
2018-06-22T17:06:23.121Z,2.07
2018-06-22T17:10:01.765Z,2.60
2018-06-22T17:13:40.314Z,2.17
2018-06-22T17:18:19.796Z,2.23
2018-06-22T17:21:53.139Z,2.20
2018-06-22T17:25:26.373Z,2.30
2018-06-22T17:28:59.641Z,2.60
2018-06-22T17:32:32.987Z,2.67
2018-06-22T17:36:06.255Z,2.73
2018-06-22T17:39:39.502Z,2.70
2018-06-22T17:43:12.763Z,2.50
2018-06-22T17:46:46.113Z,2.20
2018-06-22T17:50:24.795Z,2.50
2018-06-22T17:53:58.068Z,2.20
2018-06-22T17:57:31.337Z,2.40
2018-06-22T18:01:10.085Z,2.37
2018-06-22T18:04:45.634Z,2.60
2018-06-22T18:08:24.218Z,2.33
2018-06-22T18:12:02.883Z,2.33
2018-06-22T18:15:43.742Z,2.83
2018-06-22T18:19:17.068Z,2.30
2018-06-22T18:22:50.484Z,1.80
2018-06-22T18:26:23.734Z,2.57
2018-06-22T18:29:57.116Z,2.70
2018-06-22T18:33:35.470Z,2.90
2018-06-22T18:37:09.421Z,2.27
2018-06-22T18:40:47.198Z,2.83
2018-06-22T18:44:25.929Z,3.20
2018-06-22T18:47:59.224Z,3.40
2018-06-22T18:51:32.494Z,3.40
2018-06-22T18:55:12.118Z,2.93
2018-06-22T18:58:50.919Z,3.33
2018-06-22T19:02:30.357Z,2.80
2018-06-22T19:06:04.428Z,3.00
2018-06-22T19:09:37.651Z,2.83
2018-06-22T19:13:10.979Z,3.00
2018-06-22T19:16:44.240Z,3.50
2018-06-22T19:20:17.443Z,3.30
2018-06-22T19:23:50.720Z,3.17
2018-06-22T19:27:25.307Z,3.13
2018-06-22T19:30:58.598Z,3.37
2018-06-22T19:34:37.419Z,2.90
2018-06-22T19:38:10.671Z,3.20
2018-06-22T19:41:43.897Z,2.80
2018-06-22T19:45:22.472Z,3.00
2018-06-22T19:49:01.183Z,3.17
2018-06-22T19:52:39.898Z,2.80
2018-06-22T19:56:13.277Z,2.60
2018-06-22T19:59:47.683Z,3.10
2018-06-22T20:03:20.943Z,2.90
2018-06-22T20:06:54.268Z,2.43
2018-06-22T20:10:27.495Z,2.73
2018-06-22T20:14:00.788Z,3.10
2018-06-22T20:17:34.088Z,3.10
2018-06-22T20:21:08.425Z,3.17
2018-06-22T20:24:47.042Z,2.80
2018-06-22T20:28:20.300Z,3.17
2018-06-22T20:31:54.960Z,3.13
2018-06-22T20:35:33.671Z,2.80
2018-06-22T20:39:12.404Z,2.67
2018-06-22T20:42:53.740Z,3.30
2018-06-22T20:46:32.547Z,2.90
2018-06-22T20:50:11.473Z,3.03
2018-06-22T20:53:44.500Z,3.27
2018-06-22T20:57:17.824Z,3.13
2018-06-22T21:00:51.291Z,2.57
2018-06-22T21:04:24.634Z,2.60
2018-06-22T21:07:57.864Z,3.30
2018-06-22T21:11:31.091Z,2.93
2018-06-22T21:15:05.381Z,2.90
2018-06-22T21:18:38.703Z,3.13
2018-06-22T21:22:12.724Z,3.50
2018-06-22T21:25:45.989Z,3.43
2018-06-22T21:29:24.531Z,3.37
2018-06-22T21:33:03.183Z,3.10
2018-06-22T21:36:41.809Z,3.47
2018-06-22T21:40:15.057Z,3.27
2018-06-22T21:43:48.351Z,3.20
2018-06-22T21:47:21.613Z,4.10
2018-06-22T21:50:54.871Z,2.80
2018-06-22T21:54:28.172Z,3.23
2018-06-22T21:58:01.469Z,2.70
2018-06-22T22:01:34.751Z,2.60
2018-06-22T22:05:08.090Z,2.77
2018-06-22T22:08:41.335Z,3.80
2018-06-22T22:12:14.598Z,2.73
2018-06-22T22:15:47.906Z,2.97
2018-06-22T22:19:21.153Z,3.67
2018-06-22T22:22:54.392Z,3.10
2018-06-22T22:26:27.393Z,2.87
2018-06-22T22:30:00.611Z,2.77
2018-06-22T22:33:33.862Z,2.90
2018-06-22T22:37:07.101Z,3.47
2018-06-22T22:40:40.377Z,3.40
2018-06-22T22:44:13.596Z,2.80
2018-06-22T22:47:46.840Z,3.80
2018-06-22T22:51:20.096Z,2.83
2018-06-22T22:54:53.355Z,3.00
2018-06-22T22:58:26.603Z,2.50
2018-06-22T23:01:59.854Z,3.13
2018-06-22T23:05:33.050Z,3.07
2018-06-22T23:09:07.211Z,2.93
2018-06-22T23:12:40.180Z,2.87
2018-06-22T23:16:13.519Z,2.90
2018-06-22T23:19:46.767Z,3.10
2018-06-22T23:23:28.293Z,3.33
2018-06-22T23:27:01.540Z,2.50
2018-06-22T23:30:35.036Z,2.63
2018-06-22T23:34:08.251Z,3.10
2018-06-22T23:37:41.493Z,2.40
2018-06-22T23:41:14.746Z,2.87
2018-06-22T23:44:48.027Z,2.80
2018-06-22T23:48:21.332Z,3.03
2018-06-22T23:51:54.546Z,2.77
2018-06-22T23:55:27.771Z,3.00
2018-06-22T23:59:01.008Z,3.63
